Huvudsida
METAR-TAF:

METAR-TAF

Flygplatser :

Pskov, Ryssland

latitud: 57-47-06N, longitud: 028-23-54E, höjd: 47 m

Aktuellt väderrapport

Denna rapport gjordes för 1 timme och 1 minuter sedan, klockan 21:00 UTC
Vind 10 kt från väst, varierande mellan väst/sydväst och nordväst
Temperatur 4°C
Fuktighet 81%
Tryck 1014 hPa
Sikt 10 km eller mer

METAR: ULOO 112100Z AUTO 27005MPS 250V310 9999 // ///012/// 04/01 Q1014 RMK QFE756

Tid: 01:01 (22:01 UTC)

Väderprognos

Denna rapport gjordes för 2 timmar och 3 minuter sedan, klockan 19:58 UTC
Prognos gäller från 11 kl. 21 UTC till 12 kl. 06 UTC
Vind 6 kt från väst
Sikt: 6000 m
Brutna moln på en höjd av 1100 ft
Brutna moln på en höjd av 1500 ft
Temporärt
från 11 kl. 21 UTC till 12 kl. 02 UTC
Sikt: 3100 m
Brutna moln på en höjd av 1000 ft
fuktdis
Temporärt
från 12 kl. 02 UTC till 12 kl. 06 UTC
Sikt: 1500 m
fuktdis

TAF: ULOO 111958Z 1121/1206 28003MPS 6000 BKN011 BKN015 TEMPO 1121/1202 3100 BR BKN010 TEMPO 1202/1206 1500 BR

Aktuella väderrapporter och prognoser från 4000 flygplatser (METAR- och TAF-rapporter).

De tillgängliga stationerna syns som gula och röda prickar på kartan.

För musen över prickarna för att se namnen på stationerna.

Klicka sedan för att få väderrapporter och prognoser.

För att ändra kartan: Klicka på de gröna knapparna med ett svart kors på för att zooma in; den gröna knappen med ett streck på för att zooma ut; eller på de gröna pilarna för angränsande kartor.


METAR-TAF: